Bridgeland, Utah
Current Conditions -  °F | °C
As of 1:53 AM on Saturday 20 Dec 2014 (Local Time) from KPUC Reporting Station
Few Clouds Few Clouds  
Wind Chill: 19°   Ceiling: Unl
Heat Index: 25°   Visibility: 10mi
Dew Point: 20°   Wind: 5mph
Humidity: 81%   Direction: 30°NNE
Pressure: 30.17"   Gusts: NA
Location:  39.9707°N, 110.477°W
Report Text: KPUC 200853Z AUTO 03004KT 10SM FEW120 M04/M07 A3017 RMK AO2 SLP259 T10391067 58009
Loading
Personal Weather Stations






























Interactive Weather Map New forecast layout! Learn more

10-Day Weather Forecast

Advertisements
Track Severe Weather on mobile